Time;durP1;ratioP1;P1;durP2;ratioP2;P2;SDS_P1;SDS_P2;PMS_P1;PMS_P2;Temp;Humidity;BMP_temperature;BMP_pressure;BME280_temperature;BME280_humidity;BME280_pressure;Samples;Min_cycle;Max_cycle;Signal;HPM_P1;HPM_P2
2022/12/19 00:00:32;;;;;;;0.20;0.20;;;8.90;99.90;;;;;;2001413;29;20309;-81
2022/12/19 00:01:35;;;;;;;0.00;0.00;;;8.90;99.90;;;;;;2004665;29;20034;-82
2022/12/19 00:02:35;;;;;;;0.00;0.00;;;8.80;99.90;;;;;;2012346;29;20030;-82
2022/12/19 00:03:36;;;;;;;0.00;0.00;;;8.90;99.90;;;;;;2006680;29;20147;-81
2022/12/19 00:04:37;;;;;;;0.00;0.00;;;8.90;99.90;;;;;;2010633;29;20406;-82
2022/12/19 00:05:39;;;;;;;0.10;0.10;;;8.90;99.90;;;;;;2011244;29;20161;-82
2022/12/19 00:06:40;;;;;;;;;;;8.90;99.90;;;;;;2011979;29;20047;-82
2022/12/19 00:07:40;;;;;;;0.00;0.00;;;8.90;99.90;;;;;;2017420;29;19911;-83
2022/12/19 00:08:44;;;;;;;0.00;0.00;;;8.90;99.90;;;;;;2027519;29;20028;-82
2022/12/19 00:09:44;;;;;;;0.00;0.00;;;9.00;99.90;;;;;;2017852;29;20032;-81
2022/12/19 00:10:54;;;;;;;0.00;0.00;;;9.00;99.90;;;;;;2012120;29;20030;-82
2022/12/19 00:11:55;;;;;;;0.10;0.10;;;9.00;99.90;;;;;;2005588;29;20038;-82
2022/12/19 00:12:56;;;;;;;0.00;0.00;;;9.00;99.90;;;;;;2003990;29;20073;-82
2022/12/19 00:13:57;;;;;;;0.00;0.00;;;9.00;99.90;;;;;;2018702;29;20049;-82
2022/12/19 00:14:58;;;;;;;0.00;0.00;;;9.00;99.90;;;;;;2020043;29;20363;-82
2022/12/19 00:16:04;;;;;;;0.00;0.00;;;9.00;99.90;;;;;;2020028;29;20045;-82
2022/12/19 00:17:04;;;;;;;0.10;0.10;;;9.00;99.90;;;;;;2012151;29;20060;-84
2022/12/19 00:18:05;;;;;;;0.00;0.00;;;9.00;99.90;;;;;;1996894;29;20382;-83
2022/12/19 00:19:06;;;;;;;0.00;0.00;;;9.00;99.90;;;;;;1996941;29;20042;-85
2022/12/19 00:20:07;;;;;;;0.00;0.00;;;9.00;99.90;;;;;;1996133;29;20026;-84
2022/12/19 00:21:10;;;;;;;0.00;0.00;;;9.00;99.90;;;;;;2004730;29;20042;-84
2022/12/19 00:22:11;;;;;;;0.00;0.00;;;9.10;99.90;;;;;;2004613;29;20044;-84
2022/12/19 00:23:12;;;;;;;0.00;0.00;;;9.10;99.90;;;;;;2004687;29;20381;-84
2022/12/19 00:24:13;;;;;;;0.00;0.00;;;9.20;99.90;;;;;;2004422;29;20030;-84
2022/12/19 00:25:13;;;;;;;0.00;0.00;;;9.10;99.90;;;;;;2008857;29;20342;-84
2022/12/19 00:26:20;;;;;;;0.00;0.00;;;9.10;99.90;;;;;;2011349;29;20102;-84
2022/12/19 00:27:21;;;;;;;0.00;0.00;;;9.10;99.90;;;;;;2011968;29;20025;-85
2022/12/19 00:28:22;;;;;;;0.00;0.00;;;9.10;99.90;;;;;;2004520;29;20026;-83
2022/12/19 00:29:23;;;;;;;0.00;0.00;;;9.10;99.90;;;;;;1997059;29;20042;-84
2022/12/19 00:30:25;;;;;;;0.08;0.08;;;9.10;99.90;;;;;;2000982;29;20159;-84
2022/12/19 00:31:28;;;;;;;0.00;0.00;;;9.10;99.90;;;;;;2014936;29;20062;-84
2022/12/19 00:32:29;;;;;;;0.00;0.00;;;9.10;99.90;;;;;;2004647;29;20034;-84
2022/12/19 00:33:30;;;;;;;0.10;0.10;;;9.20;99.90;;;;;;2007951;29;20532;-84
2022/12/19 00:34:31;;;;;;;0.10;0.10;;;9.20;99.90;;;;;;2007931;29;20038;-84
2022/12/19 00:35:31;;;;;;;0.00;0.00;;;9.10;99.90;;;;;;2004429;29;20528;-84
2022/12/19 00:36:33;;;;;;;0.20;0.20;;;9.20;99.90;;;;;;2016515;29;20421;-84
2022/12/19 00:37:34;;;;;;;0.00;0.00;;;9.20;99.90;;;;;;2011948;29;20038;-83
2022/12/19 00:38:37;;;;;;;0.00;0.00;;;9.10;99.90;;;;;;2011949;29;20041;-84
2022/12/19 00:39:38;;;;;;;0.00;0.00;;;9.10;99.90;;;;;;1996558;29;20046;-84
2022/12/19 00:40:40;;;;;;;0.00;0.00;;;9.10;99.90;;;;;;1989594;29;20400;-84
2022/12/19 00:41:41;;;;;;;0.03;0.03;;;9.10;99.90;;;;;;2004637;29;20026;-84
2022/12/19 00:42:42;;;;;;;0.00;0.00;;;9.20;99.90;;;;;;2024139;29;20068;-84
2022/12/19 00:43:43;;;;;;;0.00;0.00;;;9.30;99.90;;;;;;2012064;29;20025;-85
2022/12/19 00:44:44;;;;;;;0.00;0.00;;;9.30;99.90;;;;;;2004372;29;20091;-83
2022/12/19 00:45:44;;;;;;;0.10;0.10;;;9.20;99.90;;;;;;2019429;29;20103;-84
2022/12/19 00:46:45;;;;;;;0.00;0.00;;;9.20;99.90;;;;;;2011278;29;20082;-85
2022/12/19 00:47:47;;;;;;;0.00;0.00;;;9.20;99.90;;;;;;2004617;29;20053;-83
2022/12/19 00:48:48;;;;;;;0.00;0.00;;;9.20;99.90;;;;;;2003576;29;20075;-84
2022/12/19 00:49:49;;;;;;;0.00;0.00;;;9.20;99.90;;;;;;2004392;29;20611;-85
2022/12/19 00:50:49;;;;;;;0.00;0.00;;;9.20;99.90;;;;;;2011777;29;20037;-84
2022/12/19 00:51:50;;;;;;;0.00;0.00;;;9.20;99.90;;;;;;2011160;29;20037;-84
2022/12/19 00:52:51;;;;;;;0.13;0.13;;;9.30;99.90;;;;;;2003785;29;20485;-81
2022/12/19 00:53:54;;;;;;;0.00;0.00;;;9.30;99.90;;;;;;2004233;29;20181;-84
2022/12/19 00:54:54;;;;;;;0.00;0.00;;;9.30;99.90;;;;;;2019653;29;20133;-84
2022/12/19 00:55:55;;;;;;;0.00;0.00;;;9.20;99.90;;;;;;2023002;29;20028;-85
2022/12/19 00:56:56;;;;;;;0.00;0.00;;;9.20;99.90;;;;;;2019414;29;20088;-83
2022/12/19 00:57:57;;;;;;;0.10;0.10;;;9.30;99.90;;;;;;2019340;29;20810;-83
2022/12/19 00:58:58;;;;;;;0.00;0.00;;;9.30;99.90;;;;;;2011904;29;20044;-83
2022/12/19 00:59:59;;;;;;;0.00;0.00;;;9.40;99.90;;;;;;2003680;29;20078;-84
2022/12/19 01:01:32;;;;;;;0.00;0.00;;;9.40;99.90;;;;;;2004243;29;20200;-83
2022/12/19 01:02:32;;;;;;;0.03;0.03;;;9.30;99.90;;;;;;2001508;29;20056;-82
2022/12/19 01:03:34;;;;;;;0.10;0.10;;;9.30;99.90;;;;;;2011628;29;20057;-83
2022/12/19 01:04:35;;;;;;;0.10;0.10;;;9.30;99.90;;;;;;2004374;29;20269;-84
2022/12/19 01:05:35;;;;;;;0.00;0.00;;;9.40;99.90;;;;;;2004117;29;20030;-85
2022/12/19 01:06:37;;;;;;;;;;;9.40;99.90;;;;;;2003798;29;20044;-84
2022/12/19 01:07:39;;;;;;;0.25;0.22;;;9.40;99.90;;;;;;1996619;29;20264;-83
2022/12/19 01:08:40;;;;;;;0.00;0.00;;;9.40;99.90;;;;;;2004399;29;20038;-84
2022/12/19 01:09:40;;;;;;;0.00;0.00;;;9.40;99.90;;;;;;2015654;29;20048;-84
2022/12/19 01:10:47;;;;;;;0.05;0.05;;;9.40;99.90;;;;;;2011813;29;20057;-83
2022/12/19 01:13:07;;;;;;;0.00;0.00;;;9.30;99.90;;;;;;2012791;29;20042;-84
2022/12/19 01:14:12;;;;;;;0.00;0.00;;;9.40;99.90;;;;;;2019204;29;20437;-84
2022/12/19 01:15:16;;;;;;;0.00;0.00;;;9.40;99.90;;;;;;2026384;29;20028;-84
2022/12/19 01:16:17;;;;;;;0.00;0.00;;;9.30;99.90;;;;;;2011967;29;20033;-84
2022/12/19 01:17:17;;;;;;;0.00;0.00;;;9.40;99.90;;;;;;2011891;29;20445;-84
2022/12/19 01:18:18;;;;;;;0.00;0.00;;;9.30;99.90;;;;;;2004026;29;20030;-84
2022/12/19 01:19:21;;;;;;;0.00;0.00;;;9.40;99.90;;;;;;2007858;29;20062;-84
2022/12/19 01:20:22;;;;;;;0.00;0.00;;;9.30;99.90;;;;;;2010812;29;20062;-84
2022/12/19 01:21:23;;;;;;;0.00;0.00;;;9.30;99.90;;;;;;2004138;29;20358;-84
2022/12/19 01:22:25;;;;;;;0.00;0.00;;;9.30;99.90;;;;;;2004133;29;20033;-84
2022/12/19 01:23:26;;;;;;;0.40;0.40;;;9.40;99.90;;;;;;2009522;29;20091;-83
2022/12/19 01:24:27;;;;;;;0.05;0.05;;;9.40;99.90;;;;;;2011712;29;20032;-83
2022/12/19 01:25:28;;;;;;;0.00;0.00;;;9.40;99.90;;;;;;2016135;29;20060;-84
2022/12/19 01:26:29;;;;;;;0.00;0.00;;;9.40;99.90;;;;;;2018618;29;20069;-83
2022/12/19 01:27:30;;;;;;;0.00;0.00;;;9.50;99.90;;;;;;2014629;29;20039;-84
2022/12/19 01:28:32;;;;;;;0.00;0.00;;;9.50;99.90;;;;;;2019404;29;20111;-84
2022/12/19 01:29:34;;;;;;;;;;;9.50;99.90;;;;;;2019887;29;20052;-86
2022/12/19 01:30:38;;;;;;;0.00;0.00;;;9.50;99.90;;;;;;2019343;29;19915;-83
2022/12/19 01:31:40;;;;;;;0.00;0.00;;;9.50;99.90;;;;;;2011369;29;20355;-84
2022/12/19 01:32:40;;;;;;;0.00;0.00;;;9.50;99.90;;;;;;2004086;29;20041;-84
2022/12/19 01:33:41;;;;;;;0.07;0.07;;;9.50;99.90;;;;;;1997363;29;20492;-84
2022/12/19 01:34:42;;;;;;;0.53;0.50;;;9.50;99.90;;;;;;2004004;29;20112;-83
2022/12/19 01:35:45;;;;;;;0.00;0.00;;;9.50;99.90;;;;;;1997253;29;20070;-84
2022/12/19 01:36:46;;;;;;;1.07;0.50;;;9.60;99.90;;;;;;2001721;29;20036;-84
2022/12/19 01:37:47;;;;;;;0.00;0.00;;;9.60;99.90;;;;;;2011625;29;20624;-84
2022/12/19 01:38:47;;;;;;;0.00;0.00;;;9.60;99.90;;;;;;2003956;29;20137;-84
2022/12/19 01:39:48;;;;;;;0.03;0.03;;;9.60;99.90;;;;;;2002661;29;20037;-84
2022/12/19 01:40:54;;;;;;;0.00;0.00;;;9.60;99.90;;;;;;2011541;29;20045;-83
2022/12/19 01:41:56;;;;;;;0.00;0.00;;;9.60;99.90;;;;;;2011964;29;20528;-84
2022/12/19 01:42:57;;;;;;;0.10;0.10;;;9.60;99.90;;;;;;2019214;29;20036;-84
2022/12/19 01:44:07;;;;;;;0.00;0.00;;;9.60;99.90;;;;;;2027095;29;20477;-84
2022/12/19 01:45:07;;;;;;;0.00;0.00;;;9.70;99.90;;;;;;2026694;29;20550;-84
2022/12/19 01:46:13;;;;;;;0.00;0.00;;;9.60;99.90;;;;;;2011587;29;20089;-82
2022/12/19 01:47:14;;;;;;;0.10;0.10;;;9.60;99.90;;;;;;2019192;29;20062;-82
2022/12/19 01:48:37;;;;;;;0.23;0.23;;;9.60;99.90;;;;;;2004587;29;20033;-82
2022/12/19 01:49:38;;;;;;;0.10;0.10;;;9.60;99.90;;;;;;2022086;29;20044;-84
2022/12/19 01:50:48;;;;;;;0.00;0.00;;;9.60;99.90;;;;;;2029913;29;20028;-84
2022/12/19 01:51:51;;;;;;;0.00;0.00;;;9.60;99.90;;;;;;2026964;29;20040;-85
2022/12/19 01:52:53;;;;;;;0.00;0.00;;;9.70;99.90;;;;;;2013029;29;20040;-82
2022/12/19 01:54:00;;;;;;;0.00;0.00;;;9.60;99.90;;;;;;2020964;29;20025;-84
2022/12/19 01:55:04;;;;;;;0.00;0.00;;;9.70;99.90;;;;;;2022353;29;20028;-84
2022/12/19 01:56:07;;;;;;;0.00;0.00;;;9.70;99.90;;;;;;2008683;29;20029;-84
2022/12/19 01:57:12;;;;;;;0.00;0.00;;;9.70;99.90;;;;;;2004271;29;20464;-84
2022/12/19 01:58:13;;;;;;;0.00;0.00;;;9.80;99.90;;;;;;2020227;29;20029;-84
2022/12/19 01:59:23;;;;;;;0.00;0.00;;;9.80;99.90;;;;;;2026809;29;20021;-84
2022/12/19 02:00:23;;;;;;;0.00;0.00;;;9.80;99.90;;;;;;2012799;29;20037;-84
2022/12/19 02:01:24;;;;;;;0.00;0.00;;;9.80;99.90;;;;;;2019111;29;20730;-84
2022/12/19 02:02:30;;;;;;;0.00;0.00;;;9.70;99.90;;;;;;2018835;29;20057;-83
2022/12/19 02:03:33;;;;;;;0.00;0.00;;;9.70;99.90;;;;;;2011821;29;20548;-84
2022/12/19 02:04:35;;;;;;;0.00;0.00;;;9.70;99.90;;;;;;2012069;29;20037;-84
2022/12/19 02:05:37;;;;;;;0.08;0.08;;;9.70;99.90;;;;;;2019272;29;20031;-84
2022/12/19 02:06:38;;;;;;;;;;;9.70;99.90;;;;;;2014824;29;20036;-85
2022/12/19 02:07:40;;;;;;;0.00;0.00;;;9.70;99.90;;;;;;2011456;29;19912;-84
2022/12/19 02:08:44;;;;;;;0.00;0.00;;;9.70;99.90;;;;;;2003956;29;20117;-84
2022/12/19 02:09:48;;;;;;;0.00;0.00;;;9.70;99.90;;;;;;2018072;29;20467;-84
2022/12/19 02:10:51;;;;;;;0.00;0.00;;;9.70;99.90;;;;;;2011861;29;20044;-84
2022/12/19 02:11:52;;;;;;;0.00;0.00;;;9.70;99.90;;;;;;2011383;29;20033;-84
2022/12/19 02:12:53;;;;;;;0.00;0.00;;;9.70;99.90;;;;;;2010737;29;20100;-84
2022/12/19 02:13:54;;;;;;;0.00;0.00;;;9.70;99.90;;;;;;2011310;29;20046;-84
2022/12/19 02:14:58;;;;;;;0.10;0.10;;;9.70;99.90;;;;;;2011460;29;20090;-84
2022/12/19 02:16:15;;;;;;;0.00;0.00;;;9.80;99.90;;;;;;2019252;29;20064;-84
2022/12/19 02:17:37;;;;;;;0.10;0.10;;;9.80;99.90;;;;;;2019058;29;20268;-83
2022/12/19 02:18:45;;;;;;;0.00;0.00;;;9.90;99.90;;;;;;2021431;29;20185;-84
2022/12/19 02:20:15;;;;;;;0.00;0.00;;;9.90;99.90;;;;;;2025004;29;20081;-83
2022/12/19 02:21:44;;;;;;;0.30;0.15;;;9.90;99.90;;;;;;2015025;29;20040;-84
2022/12/19 02:23:29;;;;;;;0.00;0.00;;;9.80;99.90;;;;;;2014933;29;20033;-85
2022/12/19 02:24:53;;;;;;;0.20;0.20;;;9.80;99.90;;;;;;2003294;29;20026;-84
2022/12/19 02:26:26;;;;;;;0.00;0.00;;;9.80;99.90;;;;;;1998475;29;20037;-84
2022/12/19 02:30:04;;;;;;;0.10;0.10;;;9.80;99.90;;;;;;2007043;29;20029;-84
2022/12/19 02:31:11;;;;;;;0.10;0.10;;;9.80;99.90;;;;;;2023954;29;20029;-84
2022/12/19 02:32:17;;;;;;;0.00;0.00;;;9.90;99.90;;;;;;2019667;29;20370;-83
2022/12/19 02:33:32;;;;;;;0.00;0.00;;;9.80;99.90;;;;;;2011439;29;20041;-83
2022/12/19 02:34:41;;;;;;;0.00;0.00;;;9.90;99.90;;;;;;2007194;29;20112;-84
2022/12/19 02:35:57;;;;;;;0.00;0.00;;;9.90;99.90;;;;;;2011129;29;20037;-84
2022/12/19 02:37:21;;;;;;;0.00;0.00;;;9.90;99.90;;;;;;2007449;29;20034;-83
2022/12/19 02:38:40;;;;;;;0.00;0.00;;;9.90;99.90;;;;;;2011634;29;20089;-84
2022/12/19 02:39:54;;;;;;;0.45;0.45;;;9.80;99.90;;;;;;2018001;29;20029;-84
2022/12/19 02:41:06;;;;;;;0.00;0.00;;;9.90;99.90;;;;;;2020491;29;20029;-84
2022/12/19 02:42:10;;;;;;;0.00;0.00;;;9.90;99.90;;;;;;2012609;29;20029;-84
2022/12/19 02:43:15;;;;;;;0.00;0.00;;;9.90;99.90;;;;;;2011799;29;20358;-84
2022/12/19 02:44:38;;;;;;;0.00;0.00;;;9.80;99.90;;;;;;2007550;29;20129;-82
2022/12/19 02:45:41;;;;;;;0.10;0.10;;;9.80;99.90;;;;;;2014053;29;20308;-83
2022/12/19 02:46:44;;;;;;;0.00;0.00;;;9.80;99.90;;;;;;2008279;29;20514;-84
2022/12/19 02:47:47;;;;;;;0.00;0.00;;;9.80;99.90;;;;;;2011213;29;20478;-84
2022/12/19 02:48:48;;;;;;;0.00;0.00;;;9.90;99.90;;;;;;2002078;29;20026;-84
2022/12/19 02:49:49;;;;;;;0.10;0.10;;;10.00;99.90;;;;;;1996294;29;20030;-85
2022/12/19 02:50:51;;;;;;;0.00;0.00;;;9.90;99.90;;;;;;2009177;29;20037;-84
2022/12/19 02:51:52;;;;;;;0.00;0.00;;;9.90;99.90;;;;;;2003544;29;20453;-84
2022/12/19 02:52:53;;;;;;;0.00;0.00;;;9.90;99.90;;;;;;2002225;29;20045;-83
2022/12/19 02:53:54;;;;;;;0.00;0.00;;;10.00;99.90;;;;;;1995922;29;20042;-84
2022/12/19 02:55:00;;;;;;;0.00;0.00;;;10.00;99.90;;;;;;2007420;29;20029;-84
2022/12/19 02:56:40;;;;;;;0.10;0.10;;;9.90;99.90;;;;;;2018750;29;20040;-83
2022/12/19 02:57:44;;;;;;;0.10;0.10;;;9.90;99.90;;;;;;1990516;29;20384;-84
2022/12/19 02:59:21;;;;;;;0.00;0.00;;;10.00;99.90;;;;;;2007642;29;20029;-84
2022/12/19 03:00:25;;;;;;;0.17;0.17;;;9.90;99.90;;;;;;2007811;29;20104;-83
2022/12/19 03:01:34;;;;;;;0.00;0.00;;;9.90;99.90;;;;;;2003539;29;20133;-84
2022/12/19 03:02:53;;;;;;;0.10;0.10;;;10.00;99.90;;;;;;2008911;29;20272;-84
2022/12/19 03:04:16;;;;;;;0.10;0.10;;;10.00;99.90;;;;;;2016493;29;20749;-84
2022/12/19 03:05:35;;;;;;;0.00;0.00;;;10.00;99.90;;;;;;2006323;29;20272;-84
2022/12/19 03:07:02;;;;;;;0.08;0.08;;;10.00;99.90;;;;;;2004945;29;20034;-84
2022/12/19 03:08:07;;;;;;;0.00;0.00;;;10.00;99.90;;;;;;1999559;29;20094;-84
2022/12/19 03:09:47;;;;;;;0.00;0.00;;;10.00;99.90;;;;;;2004457;29;20436;-84
2022/12/19 03:10:51;;;;;;;0.00;0.00;;;10.00;99.90;;;;;;2016694;29;20272;-84
2022/12/19 03:12:00;;;;;;;0.00;0.00;;;10.00;99.90;;;;;;2003675;29;20290;-83
2022/12/19 03:13:31;;;;;;;0.00;0.00;;;10.00;99.90;;;;;;2003906;29;20030;-84
2022/12/19 03:14:36;;;;;;;0.47;0.47;;;10.00;99.90;;;;;;2015905;29;20037;-84
2022/12/19 03:15:38;;;;;;;3.13;0.83;;;10.00;99.90;;;;;;2005437;29;20269;-83
2022/12/19 03:16:39;;;;;;;0.00;0.00;;;10.00;99.90;;;;;;2005392;29;20356;-84
2022/12/19 03:17:40;;;;;;;0.00;0.00;;;10.10;99.90;;;;;;2012529;29;20033;-85
2022/12/19 03:18:41;;;;;;;0.32;0.32;;;10.00;99.90;;;;;;2012526;29;20033;-84
2022/12/19 03:19:42;;;;;;;0.00;0.00;;;9.90;99.90;;;;;;2009468;29;20026;-84
2022/12/19 03:20:53;;;;;;;0.00;0.00;;;10.00;99.90;;;;;;2020403;29;20036;-84
2022/12/19 03:21:54;;;;;;;0.00;0.00;;;10.00;99.90;;;;;;2020356;29;20057;-84
2022/12/19 03:22:54;;;;;;;0.00;0.00;;;10.00;99.90;;;;;;2020259;29;20275;-84
2022/12/19 03:23:57;;;;;;;0.00;0.00;;;10.10;99.90;;;;;;2025230;29;20033;-84
2022/12/19 03:24:58;;;;;;;0.00;0.00;;;10.10;99.90;;;;;;2020219;29;20044;-84
2022/12/19 03:26:03;;;;;;;0.00;0.00;;;10.10;99.90;;;;;;2012540;29;20098;-85
2022/12/19 03:27:26;;;;;;;0.00;0.00;;;10.10;99.90;;;;;;2005283;29;20109;-83
2022/12/19 03:28:41;;;;;;;0.00;0.00;;;10.00;99.90;;;;;;2012569;29;20460;-84
2022/12/19 03:29:53;;;;;;;0.00;0.00;;;10.10;99.90;;;;;;2004881;29;20049;-84
2022/12/19 03:30:58;;;;;;;0.10;0.10;;;10.10;99.90;;;;;;2006373;29;20363;-85
2022/12/19 03:32:02;;;;;;;0.10;0.10;;;10.20;99.90;;;;;;2004833;29;20034;-84
2022/12/19 03:33:03;;;;;;;0.50;0.50;;;10.30;99.90;;;;;;2004792;29;20094;-84
2022/12/19 03:34:11;;;;;;;29.67;0.63;;;10.30;99.90;;;;;;2005784;29;20322;-84
2022/12/19 03:35:21;;;;;;;0.00;0.00;;;10.20;99.90;;;;;;2009957;29;20026;-84
2022/12/19 03:36:29;;;;;;;0.00;0.00;;;10.20;99.90;;;;;;2006062;29;20021;-84
2022/12/19 03:37:35;;;;;;;0.00;0.00;;;10.20;99.90;;;;;;2005599;29;20273;-84
2022/12/19 03:38:38;;;;;;;0.10;0.10;;;10.20;99.90;;;;;;2005419;29;20048;-84
2022/12/19 03:39:42;;;;;;;0.00;0.00;;;10.20;99.90;;;;;;2004847;29;20093;-84
2022/12/19 03:40:44;;;;;;;0.00;0.00;;;10.30;99.90;;;;;;2012905;29;20104;-84
2022/12/19 03:43:10;;;;;;;0.00;0.00;;;10.30;99.90;;;;;;2009722;29;20117;-84
2022/12/19 03:44:14;;;;;;;0.37;0.20;;;10.40;99.90;;;;;;2016961;29;20273;-82
2022/12/19 03:45:22;;;;;;;0.10;0.10;;;10.40;99.90;;;;;;2014578;29;20272;-83
2022/12/19 03:46:26;;;;;;;0.07;0.07;;;10.30;99.90;;;;;;2004535;29;20045;-84
2022/12/19 03:47:33;;;;;;;0.13;0.13;;;10.30;99.90;;;;;;2012641;29;20325;-84
2022/12/19 03:48:41;;;;;;;0.00;0.00;;;10.20;99.90;;;;;;2005195;29;20644;-83
2022/12/19 03:49:42;;;;;;;0.07;0.07;;;10.30;99.90;;;;;;2013157;29;20333;-84
2022/12/19 03:51:02;;;;;;;0.10;0.10;;;10.30;99.90;;;;;;2011929;29;20281;-84
2022/12/19 03:52:23;;;;;;;0.00;0.00;;;10.30;99.90;;;;;;2012383;29;20524;-84
2022/12/19 03:53:43;;;;;;;0.00;0.00;;;10.30;99.90;;;;;;1998910;29;20277;-84
2022/12/19 03:54:54;;;;;;;0.00;0.00;;;10.40;99.90;;;;;;2001821;29;20298;-84
2022/12/19 03:56:24;;;;;;;0.00;0.00;;;10.40;99.90;;;;;;2013607;29;20321;-84
2022/12/19 03:57:34;;;;;;;0.03;0.03;;;10.40;99.90;;;;;;1999313;29;20045;-84
2022/12/19 03:58:39;;;;;;;0.53;0.47;;;10.40;99.90;;;;;;1998061;29;20385;-84
2022/12/19 03:59:54;;;;;;;0.00;0.00;;;10.40;99.90;;;;;;1996850;29;20266;-83
2022/12/19 04:00:55;;;;;;;0.00;0.00;;;10.40;99.90;;;;;;1993196;29;20042;-84
2022/12/19 04:01:57;;;;;;;0.00;0.00;;;10.40;99.90;;;;;;1997127;29;20030;-84
2022/12/19 04:02:58;;;;;;;0.00;0.00;;;10.50;99.90;;;;;;2004774;29;20462;-83
2022/12/19 04:04:01;;;;;;;0.00;0.00;;;10.40;99.90;;;;;;2012317;29;20279;-84
2022/12/19 04:05:07;;;;;;;0.00;0.00;;;10.40;99.90;;;;;;2004998;29;20393;-84
2022/12/19 04:06:08;;;;;;;0.00;0.00;;;10.40;99.90;;;;;;1997589;29;20347;-84
2022/12/19 04:07:12;;;;;;;0.05;0.05;;;10.40;99.90;;;;;;2003887;29;20108;-84
2022/12/19 04:08:14;;;;;;;0.00;0.00;;;10.40;99.90;;;;;;2019886;29;20029;-84
2022/12/19 04:09:15;;;;;;;;;;;10.40;99.90;;;;;;2004993;29;20270;-84
2022/12/19 04:10:19;;;;;;;0.08;0.08;;;10.40;99.90;;;;;;2004548;29;19980;-83
2022/12/19 04:11:21;;;;;;;0.00;0.00;;;10.30;99.90;;;;;;1997409;29;20064;-83
2022/12/19 04:12:27;;;;;;;0.00;0.00;;;10.30;99.90;;;;;;1996971;29;20749;-84
2022/12/19 04:14:02;;;;;;;0.00;0.00;;;10.30;99.90;;;;;;1997561;29;20038;-83
2022/12/19 04:15:04;;;;;;;0.00;0.00;;;10.30;99.90;;;;;;2006079;29;20303;-83
2022/12/19 04:16:21;;;;;;;0.00;0.00;;;10.30;99.90;;;;;;2005660;29;20280;-84
2022/12/19 04:17:42;;;;;;;0.00;0.00;;;10.40;99.90;;;;;;2008696;29;20168;-84
2022/12/19 04:18:50;;;;;;;0.00;0.00;;;10.40;99.90;;;;;;2004231;29;20293;-85
2022/12/19 04:20:10;;;;;;;0.40;0.10;;;10.40;99.90;;;;;;1997094;29;20335;-82
2022/12/19 04:21:16;;;;;;;0.10;0.10;;;10.40;99.90;;;;;;2008138;29;20285;-82
2022/12/19 04:22:28;;;;;;;0.00;0.00;;;10.30;99.90;;;;;;2005100;29;20262;-83
2022/12/19 04:23:33;;;;;;;0.00;0.00;;;10.30;99.90;;;;;;2015163;29;20261;-82
2022/12/19 04:24:38;;;;;;;0.10;0.10;;;10.30;99.90;;;;;;2019538;29;20033;-82
2022/12/19 04:25:44;;;;;;;0.00;0.00;;;10.30;99.90;;;;;;2011881;29;20707;-82
2022/12/19 04:26:48;;;;;;;0.00;0.00;;;10.30;99.90;;;;;;2004351;29;20313;-82
2022/12/19 04:27:54;;;;;;;0.33;0.23;;;10.40;99.90;;;;;;2004749;29;20284;-82
2022/12/19 04:28:58;;;;;;;0.00;0.00;;;10.30;99.90;;;;;;2005052;29;20281;-82
2022/12/19 04:30:00;;;;;;;0.00;0.00;;;10.30;99.90;;;;;;1997879;29;20458;-82
2022/12/19 04:31:03;;;;;;;0.00;0.00;;;10.30;99.90;;;;;;2007516;29;20627;-82
2022/12/19 04:32:05;;;;;;;0.00;0.00;;;10.30;99.90;;;;;;2004347;29;20278;-83
2022/12/19 04:33:06;;;;;;;0.00;0.00;;;10.30;99.90;;;;;;2003808;29;20319;-82
2022/12/19 04:34:07;;;;;;;0.00;0.00;;;10.30;99.90;;;;;;2004374;29;20281;-82
2022/12/19 04:35:08;;;;;;;0.00;0.00;;;10.30;99.90;;;;;;2004405;29;20049;-81
2022/12/19 04:36:09;;;;;;;0.00;0.00;;;10.40;99.90;;;;;;2004461;29;20098;-82
2022/12/19 04:37:11;;;;;;;0.00;0.00;;;10.30;99.90;;;;;;2004400;29;20061;-82
2022/12/19 04:38:12;;;;;;;0.10;0.10;;;10.30;99.90;;;;;;1996804;29;20347;-82
2022/12/19 04:39:12;;;;;;;0.00;0.00;;;10.30;99.90;;;;;;2004338;29;20066;-82
2022/12/19 04:40:13;;;;;;;0.17;0.17;;;10.40;99.90;;;;;;1996075;29;20109;-82
2022/12/19 04:41:14;;;;;;;0.00;0.00;;;10.30;99.90;;;;;;2006750;29;20128;-82
2022/12/19 04:42:15;;;;;;;0.00;0.00;;;10.30;99.90;;;;;;2011061;29;20277;-82
2022/12/19 04:43:15;;;;;;;0.00;0.00;;;10.30;99.90;;;;;;1996777;29;20184;-81
2022/12/19 04:44:16;;;;;;;0.00;0.00;;;10.30;99.90;;;;;;2003702;29;20446;-81
2022/12/19 04:45:17;;;;;;;0.10;0.10;;;10.30;99.90;;;;;;2011920;29;20105;-82
2022/12/19 04:46:18;;;;;;;0.53;0.47;;;10.30;99.90;;;;;;2002890;29;20056;-82
2022/12/19 04:47:18;;;;;;;0.00;0.00;;;10.30;99.90;;;;;;2007272;29;20040;-82
2022/12/19 04:48:19;;;;;;;0.00;0.00;;;10.30;99.90;;;;;;2010769;29;20536;-82
2022/12/19 04:49:20;;;;;;;0.00;0.00;;;10.30;99.90;;;;;;2004201;29;20026;-81
2022/12/19 04:50:20;;;;;;;0.03;0.03;;;10.30;99.90;;;;;;2011917;29;20067;-82
2022/12/19 04:51:21;;;;;;;0.00;0.00;;;10.30;99.90;;;;;;2011479;29;20045;-82
2022/12/19 04:52:22;;;;;;;0.00;0.00;;;10.30;99.90;;;;;;2004277;29;20391;-82
2022/12/19 04:53:23;;;;;;;0.00;0.00;;;10.30;99.90;;;;;;2011099;29;20034;-82
2022/12/19 04:54:23;;;;;;;0.00;0.00;;;10.30;99.90;;;;;;2019564;29;20036;-82
2022/12/19 04:55:24;;;;;;;0.00;0.00;;;10.40;99.90;;;;;;2003956;29;20030;-82
2022/12/19 04:56:25;;;;;;;0.00;0.00;;;10.40;99.90;;;;;;2004119;29;20062;-81
2022/12/19 04:57:29;;;;;;;0.00;0.00;;;10.40;99.90;;;;;;2011570;29;20100;-82
2022/12/19 04:58:30;;;;;;;0.07;0.07;;;10.30;99.90;;;;;;2011606;29;20037;-82
2022/12/19 04:59:31;;;;;;;0.00;0.00;;;10.30;99.90;;;;;;2003422;29;20281;-81
2022/12/19 05:00:33;;;;;;;0.00;0.00;;;10.30;99.90;;;;;;1990929;29;20054;-82
2022/12/19 05:01:34;;;;;;;0.00;0.00;;;10.40;99.90;;;;;;2011845;29;20831;-82
2022/12/19 05:02:36;;;;;;;0.00;0.00;;;10.40;99.90;;;;;;2019247;29;20029;-82
2022/12/19 05:03:37;;;;;;;0.00;0.00;;;10.40;99.90;;;;;;2004456;29;20022;-82
2022/12/19 05:04:38;;;;;;;0.00;0.00;;;10.40;99.90;;;;;;2011681;29;20030;-83
2022/12/19 05:05:38;;;;;;;0.00;0.00;;;10.40;99.90;;;;;;1996641;29;20297;-82
2022/12/19 05:06:39;;;;;;;0.00;0.00;;;10.40;99.90;;;;;;1988374;29;20042;-82
2022/12/19 05:07:40;;;;;;;0.00;0.00;;;10.40;99.90;;;;;;1996567;29;20090;-82
2022/12/19 05:08:41;;;;;;;13.63;0.20;;;10.30;99.90;;;;;;2004125;29;20533;-81
2022/12/19 05:09:42;;;;;;;0.00;0.00;;;10.50;99.90;;;;;;2011380;29;20131;-82
2022/12/19 05:10:43;;;;;;;0.00;0.00;;;10.50;99.90;;;;;;2011908;29;20034;-81
2022/12/19 05:11:43;;;;;;;0.00;0.00;;;10.50;99.90;;;;;;2019206;29;20089;-82
2022/12/19 05:12:44;;;;;;;0.00;0.00;;;10.40;99.90;;;;;;2019433;29;20044;-81
2022/12/19 05:13:45;;;;;;;0.00;0.00;;;10.50;99.90;;;;;;2011138;29;20394;-82
2022/12/19 05:14:45;;;;;;;0.00;0.00;;;10.50;99.90;;;;;;2011460;29;20041;-81
2022/12/19 05:15:55;;;;;;;0.03;0.03;;;10.50;99.90;;;;;;1996711;29;20062;-82
2022/12/19 05:16:56;;;;;;;0.00;0.00;;;10.50;99.90;;;;;;1997702;29;20038;-81
2022/12/19 05:17:57;;;;;;;0.00;0.00;;;10.50;99.90;;;;;;1989013;29;20275;-82
2022/12/19 05:18:57;;;;;;;0.00;0.00;;;10.50;99.90;;;;;;1996472;29;20461;-82
2022/12/19 05:19:58;;;;;;;0.00;0.00;;;10.60;99.90;;;;;;1995788;29;20037;-82
2022/12/19 05:20:59;;;;;;;0.00;0.00;;;10.50;99.90;;;;;;2015654;29;20025;-82
2022/12/19 05:22:00;;;;;;;0.20;0.20;;;10.50;99.90;;;;;;2019556;29;20112;-82
2022/12/19 05:23:01;;;;;;;0.00;0.00;;;10.50;99.90;;;;;;2018745;29;20041;-82
2022/12/19 05:24:01;;;;;;;0.03;0.03;;;10.50;99.90;;;;;;2019072;29;20030;-82
2022/12/19 05:25:02;;;;;;;0.00;0.00;;;10.50;99.90;;;;;;2011694;29;20044;-82
2022/12/19 05:26:04;;;;;;;0.00;0.00;;;10.50;99.90;;;;;;2011600;29;20070;-82
2022/12/19 05:27:06;;;;;;;0.00;0.00;;;10.50;99.90;;;;;;2011081;29;20033;-82
2022/12/19 05:28:06;;;;;;;0.00;0.00;;;10.50;99.90;;;;;;2011611;29;20283;-82
2022/12/19 05:29:07;;;;;;;0.00;0.00;;;10.60;99.90;;;;;;2005864;29;20469;-82
2022/12/19 05:30:08;;;;;;;0.00;0.00;;;10.60;99.90;;;;;;2003995;29;20026;-82
2022/12/19 05:31:12;;;;;;;0.00;0.00;;;10.50;99.90;;;;;;2004128;29;20104;-82
2022/12/19 05:32:13;;;;;;;0.10;0.10;;;10.60;99.90;;;;;;2011820;29;20041;-82
2022/12/19 05:33:14;;;;;;;0.00;0.00;;;10.60;99.90;;;;;;2018278;29;20272;-82
2022/12/19 05:34:14;;;;;;;0.00;0.00;;;10.60;99.90;;;;;;2019263;29;20041;-81
2022/12/19 05:35:15;;;;;;;0.00;0.00;;;10.70;99.90;;;;;;2011545;29;20032;-82
2022/12/19 05:36:17;;;;;;;0.00;0.00;;;10.60;99.90;;;;;;2018126;29;20060;-82
2022/12/19 05:37:18;;;;;;;;;;;10.60;99.90;;;;;;2011464;29;20100;-81
2022/12/19 05:38:18;;;;;;;1.10;0.40;;;10.60;99.90;;;;;;2003338;29;19947;-81
2022/12/19 05:39:19;;;;;;;0.00;0.00;;;10.60;99.90;;;;;;2003595;29;20051;-81
2022/12/19 05:40:20;;;;;;;0.20;0.10;;;10.60;99.90;;;;;;2003219;29;20034;-82
2022/12/19 05:41:21;;;;;;;0.00;0.00;;;10.60;99.90;;;;;;2003265;29;20034;-81
2022/12/19 05:42:23;;;;;;;0.00;0.00;;;10.60;99.90;;;;;;1996474;29;20477;-81
2022/12/19 05:43:24;;;;;;;0.00;0.00;;;10.60;99.90;;;;;;2004186;29;20465;-81
2022/12/19 05:44:25;;;;;;;0.00;0.00;;;10.60;99.90;;;;;;2011488;29;20371;-81
2022/12/19 05:45:26;;;;;;;0.00;0.00;;;10.70;99.90;;;;;;2003970;29;20038;-82